KMBL

Manistee Co-Blacker Airport

Manistee, Michigan, USA
METAR KMBL 212256Z AUTO 35011G18KT 10SM OVC018 18/16 A2991 RMK AO2 SLP145 T01830156
Observed Flight Rules
Aug-21 @ 22:56 UTC (49 minutes ago) Marginal Visual Flight Rules
Wind Visibility Clouds
350° at 11 knots
 Gusting to 18 knots
10 miles
  • Overcast at 1,800' AGL
Temperatures Readings
Current 18°C / 64°F
Dewpoint 16°C / 61°F
Humidity 88%
Altimeter 29.91" Hg
Pressure 1014.5 hPa
Elevation 189
METAR KMBL 212256Z AUTO 35011G18KT 10SM OVC018 18/16 A2991 RMK AO2 SLP145 T01830156
Observed Flight Rules
Aug-21 @ 22:56 UTC
(49 minutes ago)
MVFR
Wind Visibility
350° at 11 knots
 Gusting to 18 knots
10 miles
Clouds
  • Overcast at 1,800' AGL
Temperature Dewpoint
18°C / 64°F 16°C / 61°F
Humidity Altimeter Pressure
88% 29.91" Hg 1014.5 hPa